Time;durP1;ratioP1;P1;durP2;ratioP2;P2;SDS_P1;SDS_P2;PMS_P1;PMS_P2;Temp;Humidity;BMP_temperature;BMP_pressure;BME280_temperature;BME280_humidity;BME280_pressure;Samples;Min_cycle;Max_cycle;Signal;HPM_P1;HPM_P2
2022/11/25 00:00:33;;;;;;;;;;;;;;;4.27;100.00;99087.97;10114520;23;20040;-76
2022/11/25 00:04:35;;;;;;;;;;;;;;;4.25;100.00;99081.09;10121690;23;19987;-76
2022/11/25 00:08:37;;;;;;;;;;;;;;;4.19;100.00;99081.00;10122347;23;19928;-75
2022/11/25 00:12:39;;;;;;;;;;;;;;;4.20;100.00;99077.59;10119111;23;20011;-75
2022/11/25 00:16:41;;;;;;;;;;;;;;;4.21;100.00;99081.91;10111580;23;20287;-75
2022/11/25 00:20:48;;;;;;;;;;;;;;;4.24;100.00;99078.50;10096529;23;20410;-76
2022/11/25 00:24:50;;;;;;;;;;;;;;;4.28;100.00;99079.41;10094354;23;19925;-75
2022/11/25 00:28:52;;;;;;;;;;;;;;;4.28;100.00;99084.53;10120064;23;20489;-75
2022/11/25 00:37:03;;;;;;;;;;;;;;;4.22;100.00;99073.34;10166535;23;19935;-76
2022/11/25 00:45:25;;;;;;;;;;;;;;;4.28;100.00;99054.56;10165730;23;20291;-76
2022/11/25 00:49:26;;;;;;;;;;;;;;;4.28;100.00;99052.00;10173862;23;19924;-76
2022/11/25 00:53:29;;;;;;;;;;;;;;;4.26;100.00;99061.41;10173246;23;19970;-76
2022/11/25 00:57:31;;;;;;;;;;;;;;;4.25;100.00;99051.97;10172733;23;19960;-76
2022/11/25 01:01:33;;;;;;;;;;;;;;;4.27;100.00;99046.84;10138678;23;19991;-76
2022/11/25 01:05:35;;;;;;;;;;;;;;;4.28;100.00;99049.44;10172819;23;20434;-75
2022/11/25 01:09:36;;;;;;;;;;;;;;;4.32;100.00;99046.09;10147326;23;20310;-76
2022/11/25 01:13:37;;;;;;;;;;;;;;;4.38;100.00;99051.31;10173229;23;20015;-76
2022/11/25 01:17:39;;;;;;;;;;;;;;;4.41;100.00;99053.06;10139879;23;19934;-76
2022/11/25 01:21:40;;;;;;;;;;;;;;;4.47;100.00;99046.28;10146704;23;20010;-76
2022/11/25 01:25:42;;;;;;;;;;;;;;;4.50;100.00;99051.50;10148230;23;20003;-76
2022/11/25 01:29:44;;;;;;;;;;;;;;;4.54;100.00;99063.56;10148375;23;20552;-76
2022/11/25 01:33:46;;;;;;;;;;;;;;;4.57;100.00;99060.16;10138003;23;19953;-76
2022/11/25 01:37:47;;;;;;;;;;;;;;;4.54;100.00;99054.97;10123892;23;20008;-77
2022/11/25 01:41:49;;;;;;;;;;;;;;;4.56;100.00;99053.28;10149208;23;20473;-76
2022/11/25 01:45:51;;;;;;;;;;;;;;;4.58;100.00;99061.00;10140749;23;20371;-76
2022/11/25 01:49:58;;;;;;;;;;;;;;;4.60;100.00;99059.31;10148215;23;19924;-76
2022/11/25 01:54:02;;;;;;;;;;;;;;;4.67;100.00;99061.13;10147059;23;20385;-76
2022/11/25 01:58:06;;;;;;;;;;;;;;;4.73;100.00;99051.81;10148565;23;19952;-76
2022/11/25 02:02:08;;;;;;;;;;;;;;;4.80;100.00;99045.88;10115655;23;19925;-76
2022/11/25 02:06:36;;;;;;;;;;;;;;;4.87;100.00;99040.84;10148317;23;19979;-77
2022/11/25 02:10:39;;;;;;;;;;;;;;;4.88;100.00;99042.56;10125447;23;19987;-76
2022/11/25 02:14:40;;;;;;;;;;;;;;;4.96;100.00;99033.22;10147668;23;19924;-76
2022/11/25 02:18:44;;;;;;;;;;;;;;;5.01;100.00;99029.00;10139056;23;19936;-76
2022/11/25 02:23:06;;;;;;;;;;;;;;;5.05;100.00;99026.50;10172667;23;20015;-76
2022/11/25 02:27:07;;;;;;;;;;;;;;;5.14;100.00;99018.00;10131843;23;20526;-76
2022/11/25 02:31:09;;;;;;;;;;;;;;;5.25;100.00;99031.00;10140620;23;19931;-76
2022/11/25 02:35:42;;;;;;;;;;;;;;;5.28;100.00;99021.59;10122878;23;20227;-76
2022/11/25 02:39:46;;;;;;;;;;;;;;;5.34;100.00;99025.94;10081916;23;19928;-76
2022/11/25 02:43:48;;;;;;;;;;;;;;;5.36;100.00;99014.78;10098041;23;20008;-76
2022/11/25 02:47:51;;;;;;;;;;;;;;;5.42;100.00;99009.72;10116879;23;19991;-76
2022/11/25 02:51:54;;;;;;;;;;;;;;;5.44;100.00;99012.31;10146290;23;19929;-76
2022/11/25 02:55:58;;;;;;;;;;;;;;;5.47;100.00;99007.19;10147257;23;19925;-76
2022/11/25 03:00:05;;;;;;;;;;;;;;;5.47;100.00;98996.91;10124133;23;19929;-76
2022/11/25 03:04:14;;;;;;;;;;;;;;;5.47;100.00;99000.34;10126900;23;19936;-76
2022/11/25 03:08:16;;;;;;;;;;;;;;;5.46;100.00;98998.59;10127753;23;20003;-76
2022/11/25 03:12:18;;;;;;;;;;;;;;;5.51;100.00;98992.63;10127570;23;19925;-76
2022/11/25 03:16:24;;;;;;;;;;;;;;;5.62;100.00;99002.19;10128787;23;19987;-76
2022/11/25 03:20:42;;;;;;;;;;;;;;;5.74;100.00;98997.16;10105774;23;20347;-77
2022/11/25 03:24:49;;;;;;;;;;;;;;;5.81;100.00;99002.34;10153910;23;19933;-76
2022/11/25 03:28:54;;;;;;;;;;;;;;;5.82;100.00;98993.78;10131445;23;20333;-76
2022/11/25 03:33:11;;;;;;;;;;;;;;;5.83;100.00;99000.66;10124751;23;19921;-76
2022/11/25 03:37:14;;;;;;;;;;;;;;;5.88;100.00;99009.25;10153861;23;19925;-76
2022/11/25 03:41:16;;;;;;;;;;;;;;;5.86;100.00;99006.69;10154423;23;19956;-77
2022/11/25 03:45:30;;;;;;;;;;;;;;;5.83;100.00;99016.09;10173671;23;19966;-76
2022/11/25 03:49:32;;;;;;;;;;;;;;;5.88;100.00;99028.16;10181343;23;19924;-76
2022/11/25 03:53:36;;;;;;;;;;;;;;;5.89;100.00;99019.59;10155195;23;19931;-77
2022/11/25 04:21:03;;;;;;;;;;;;;;;5.96;100.00;99020.56;10414106;22;20759;-76
2022/11/25 04:25:04;;;;;;;;;;;;;;;5.98;100.00;99014.56;10340196;23;19923;-76
2022/11/25 04:29:06;;;;;;;;;;;;;;;6.03;100.00;99022.31;10288474;23;19931;-76
2022/11/25 04:33:07;;;;;;;;;;;;;;;6.12;100.00;99034.41;10245798;23;19955;-76
2022/11/25 04:37:09;;;;;;;;;;;;;;;6.19;100.00;99038.75;10238441;23;19962;-76
2022/11/25 04:41:10;;;;;;;;;;;;;;;6.20;100.00;99036.19;10238407;23;19959;-76
2022/11/25 04:45:14;;;;;;;;;;;;;;;6.25;100.00;99054.25;10206442;23;19931;-76
2022/11/25 04:49:24;;;;;;;;;;;;;;;6.36;100.00;99063.81;10237824;23;20717;-76
2022/11/25 04:53:25;;;;;;;;;;;;;;;6.41;99.73;99060.38;10236046;23;19924;-76
2022/11/25 04:57:26;;;;;;;;;;;;;;;6.44;99.46;99065.56;10237391;23;19952;-76
2022/11/25 05:01:28;;;;;;;;;;;;;;;6.45;99.17;99063.00;10231070;23;19947;-76
2022/11/25 05:05:29;;;;;;;;;;;;;;;6.47;98.92;99081.94;10235567;23;19924;-76
2022/11/25 05:09:30;;;;;;;;;;;;;;;6.50;98.62;99079.38;10225848;23;19951;-76
2022/11/25 05:13:32;;;;;;;;;;;;;;;6.48;98.51;99083.66;10225301;23;20434;-76
2022/11/25 05:17:33;;;;;;;;;;;;;;;6.48;98.67;99093.13;10218206;23;19952;-76
2022/11/25 05:21:35;;;;;;;;;;;;;;;6.47;98.80;99102.59;10224324;23;19931;-76
2022/11/25 05:25:36;;;;;;;;;;;;;;;6.51;98.48;99104.31;10225411;23;19928;-76
2022/11/25 05:29:38;;;;;;;;;;;;;;;6.53;98.53;99107.78;10200027;23;19924;-76
2022/11/25 05:33:39;;;;;;;;;;;;;;;6.56;99.03;99100.06;10214757;23;19928;-76
2022/11/25 05:37:41;;;;;;;;;;;;;;;6.58;98.96;99110.38;10222390;23;19982;-75
2022/11/25 05:41:42;;;;;;;;;;;;;;;6.61;99.08;99112.97;10197593;23;19936;-75
2022/11/25 05:45:44;;;;;;;;;;;;;;;6.61;99.18;99113.84;10190006;23;19958;-75
2022/11/25 05:49:45;;;;;;;;;;;;;;;6.66;99.76;99119.03;10224600;23;20236;-75
2022/11/25 05:53:46;;;;;;;;;;;;;;;6.68;99.84;99116.47;10221153;23;19962;-75
2022/11/25 05:57:48;;;;;;;;;;;;;;;6.70;100.00;99119.94;10222891;23;19924;-75
2022/11/25 06:01:51;;;;;;;;;;;;;;;6.71;100.00;99117.34;10215535;23;20010;-76
2022/11/25 06:05:56;;;;;;;;;;;;;;;6.73;100.00;99127.69;10223717;23;19934;-75
2022/11/25 06:09:58;;;;;;;;;;;;;;;6.74;100.00;99127.69;10198125;23;19966;-75
2022/11/25 06:14:03;;;;;;;;;;;;;;;6.77;100.00;99127.69;10222672;23;19928;-75
2022/11/25 06:18:05;;;;;;;;;;;;;;;6.80;100.00;99138.03;10216462;23;19963;-75
2022/11/25 06:22:06;;;;;;;;;;;;;;;6.82;100.00;99150.94;10222066;23;19954;-76
2022/11/25 06:26:07;;;;;;;;;;;;;;;6.83;100.00;99161.31;10221477;23;20296;-75
2022/11/25 06:30:09;;;;;;;;;;;;;;;6.84;100.00;99152.72;10216574;23;19979;-75
2022/11/25 06:34:10;;;;;;;;;;;;;;;6.86;100.00;99156.16;10221834;23;19948;-75
2022/11/25 06:38:11;;;;;;;;;;;;;;;6.88;100.00;99166.50;10223985;23;20028;-76
2022/11/25 06:42:13;;;;;;;;;;;;;;;6.92;100.00;99173.41;10222048;23;20610;-76
2022/11/25 06:46:15;;;;;;;;;;;;;;;6.95;100.00;99178.56;10216795;23;19924;-75
2022/11/25 06:50:23;;;;;;;;;;;;;;;6.99;100.00;99182.91;10224153;23;20772;-76
2022/11/25 06:54:24;;;;;;;;;;;;;;;7.05;100.00;99189.84;10223420;23;19932;-76
2022/11/25 06:58:25;;;;;;;;;;;;;;;7.09;100.00;99191.56;10199927;23;19979;-76
2022/11/25 07:02:36;;;;;;;;;;;;;;;7.08;100.00;99195.88;10220965;23;19920;-75
2022/11/25 07:06:44;;;;;;;;;;;;;;;7.09;100.00;99194.16;10225625;23;19921;-75
2022/11/25 07:10:45;;;;;;;;;;;;;;;7.08;100.00;99200.16;10227276;23;20522;-76
2022/11/25 07:14:49;;;;;;;;;;;;;;;7.08;100.00;99201.03;10225900;23;20532;-76
2022/11/25 07:18:50;;;;;;;;;;;;;;;7.10;100.00;99207.06;10225381;23;20414;-76
2022/11/25 07:22:52;;;;;;;;;;;;;;;7.11;100.00;99207.94;10223454;23;19935;-76
2022/11/25 07:26:53;;;;;;;;;;;;;;;7.12;100.00;99213.09;10224539;23;20011;-77
2022/11/25 07:30:54;;;;;;;;;;;;;;;7.19;100.00;99221.78;10215809;23;19987;-77
2022/11/25 07:35:18;;;;;;;;;;;;;;;7.22;100.00;99224.38;10223422;23;20171;-77
2022/11/25 07:39:21;;;;;;;;;;;;;;;7.28;100.00;99234.72;10223917;23;19924;-77
2022/11/25 07:43:23;;;;;;;;;;;;;;;7.38;100.00;99235.66;10223665;23;19929;-77
2022/11/25 07:47:25;;;;;;;;;;;;;;;7.47;100.00;99241.72;10213620;23;19986;-77
2022/11/25 07:51:29;;;;;;;;;;;;;;;7.50;100.00;99241.72;10224140;23;20367;-77
2022/11/25 07:55:31;;;;;;;;;;;;;;;7.56;100.00;99246.97;10228241;23;19928;-77
2022/11/25 07:59:33;;;;;;;;;;;;;;;7.62;100.00;99258.16;10227009;23;19920;-76
2022/11/25 08:03:39;;;;;;;;;;;;;;;7.68;100.00;99264.22;10221026;23;20193;-77
2022/11/25 08:07:40;;;;;;;;;;;;;;;7.76;100.00;99267.72;10230358;23;20288;-77
2022/11/25 08:11:42;;;;;;;;;;;;;;;7.84;100.00;99278.94;10226650;23;20346;-77
2022/11/25 08:15:44;;;;;;;;;;;;;;;7.93;100.00;99275.56;10230852;23;19934;-77
2022/11/25 08:19:46;;;;;;;;;;;;;;;8.02;100.00;99277.31;10222164;23;19924;-77
2022/11/25 08:23:51;;;;;;;;;;;;;;;8.11;100.00;99283.38;10223175;23;19924;-77
2022/11/25 08:27:52;;;;;;;;;;;;;;;8.21;100.00;99283.41;10223557;23;20548;-77
2022/11/25 08:31:54;;;;;;;;;;;;;;;8.29;100.00;99299.81;10219315;23;19928;-78
2022/11/25 08:35:55;;;;;;;;;;;;;;;8.40;100.00;99299.00;10229205;23;20070;-78
2022/11/25 08:39:56;;;;;;;;;;;;;;;8.55;100.00;99300.78;10233343;23;19928;-79
2022/11/25 08:44:02;;;;;;;;;;;;;;;8.70;100.00;99312.91;10231727;23;20563;-79
2022/11/25 08:48:04;;;;;;;;;;;;;;;8.79;100.00;99308.56;10223300;23;20316;-79
2022/11/25 08:52:06;;;;;;;;;;;;;;;8.89;100.00;99306.88;10202308;23;19928;-79
2022/11/25 08:56:07;;;;;;;;;;;;;;;8.98;100.00;99312.09;10227855;23;20003;-78
2022/11/25 09:00:09;;;;;;;;;;;;;;;9.04;100.00;99317.25;10222349;23;19924;-81
2022/11/25 09:04:11;;;;;;;;;;;;;;;9.12;100.00;99318.97;10225507;23;19924;-78
2022/11/25 09:08:13;;;;;;;;;;;;;;;9.12;100.00;99324.16;10226090;23;19934;-77
2022/11/25 09:12:14;;;;;;;;;;;;;;;9.19;100.00;99331.94;10224513;23;19981;-79
2022/11/25 09:16:16;;;;;;;;;;;;;;;9.22;100.00;99341.44;10220981;23;20007;-78
2022/11/25 09:20:17;;;;;;;;;;;;;;;9.27;100.00;99340.56;10199777;23;19927;-77
2022/11/25 09:24:19;;;;;;;;;;;;;;;9.33;100.00;99344.88;10226123;23;19959;-80
2022/11/25 09:28:21;;;;;;;;;;;;;;;9.36;100.00;99356.13;10229160;23;19932;-78
2022/11/25 09:32:22;;;;;;;;;;;;;;;9.39;100.00;99357.84;10222679;23;19974;-77
2022/11/25 09:36:23;;;;;;;;;;;;;;;9.48;99.82;99364.75;10205568;23;19964;-78
2022/11/25 09:40:31;;;;;;;;;;;;;;;9.59;99.53;99376.84;10229101;23;19924;-78
2022/11/25 09:49:22;;;;;;;;;;;;;;;9.88;97.98;99375.94;10205126;23;20424;-77
2022/11/25 09:53:27;;;;;;;;;;;;;;;10.04;97.42;99385.41;10203859;23;20657;-77
2022/11/25 09:57:31;;;;;;;;;;;;;;;10.25;96.80;99387.13;10205208;23;19924;-78
2022/11/25 10:01:38;;;;;;;;;;;;;;;10.46;95.74;99391.38;10196433;23;19928;-79
2022/11/25 10:06:06;;;;;;;;;;;;;;;10.55;94.34;99392.19;10228126;23;19924;-78
2022/11/25 10:10:16;;;;;;;;;;;;;;;10.59;92.31;99391.31;10171899;23;19924;-76
2022/11/25 10:14:20;;;;;;;;;;;;;;;10.64;90.99;99401.69;10228425;23;19924;-77
2022/11/25 10:18:37;;;;;;;;;;;;;;;10.56;89.74;99419.00;10196340;23;19963;-77
2022/11/25 10:22:41;;;;;;;;;;;;;;;10.48;90.27;99408.66;10129219;23;19925;-77
2022/11/25 10:26:45;;;;;;;;;;;;;;;10.37;88.91;99418.22;10127207;23;20436;-77
2022/11/25 10:30:59;;;;;;;;;;;;;;;10.34;88.99;99428.59;10121701;23;20434;-78
2022/11/25 10:35:03;;;;;;;;;;;;;;;10.34;89.49;99430.34;10125461;23;19935;-78
2022/11/25 10:39:08;;;;;;;;;;;;;;;10.35;89.77;99424.28;10127472;23;20265;-77
2022/11/25 10:43:11;;;;;;;;;;;;;;;10.28;87.98;99428.63;10099495;23;19995;-80
2022/11/25 10:47:25;;;;;;;;;;;;;;;10.33;88.58;99432.06;10115685;23;19967;-78
2022/11/25 10:51:34;;;;;;;;;;;;;;;10.37;89.19;99431.19;10098319;23;19960;-77
2022/11/25 10:55:35;;;;;;;;;;;;;;;10.35;88.59;99432.94;10119791;23;19924;-77
2022/11/25 10:59:38;;;;;;;;;;;;;;;10.36;88.49;99433.78;10118817;23;19931;-77
2022/11/25 11:03:41;;;;;;;;;;;;;;;10.35;88.63;99451.09;10121500;23;20000;-77
2022/11/25 11:07:44;;;;;;;;;;;;;;;10.37;88.22;99443.31;10126533;23;19945;-80
2022/11/25 11:11:47;;;;;;;;;;;;;;;10.41;88.38;99451.09;10100849;23;19924;-79
2022/11/25 11:15:49;;;;;;;;;;;;;;;10.47;86.25;99452.81;10122042;23;20584;-78
2022/11/25 11:20:09;;;;;;;;;;;;;;;10.56;86.09;99450.16;10144384;23;19924;-80
2022/11/25 11:24:25;;;;;;;;;;;;;;;10.63;84.39;99456.22;10200507;23;19970;-78
2022/11/25 11:28:29;;;;;;;;;;;;;;;10.66;83.90;99458.78;10179987;23;19924;-78
2022/11/25 11:32:31;;;;;;;;;;;;;;;10.59;81.92;99461.44;10221349;23;20251;-78
2022/11/25 11:36:45;;;;;;;;;;;;;;;10.50;80.42;99474.41;10227206;23;19964;-77
2022/11/25 11:40:50;;;;;;;;;;;;;;;10.54;82.09;99476.13;10227394;23;19931;-77
2022/11/25 11:44:53;;;;;;;;;;;;;;;10.55;82.58;99477.00;10225656;23;19974;-77
2022/11/25 11:49:00;;;;;;;;;;;;;;;10.57;82.61;99486.50;10218507;23;19924;-78
2022/11/25 11:53:21;;;;;;;;;;;;;;;10.60;82.04;99493.44;10194550;23;19924;-78
2022/11/25 11:57:28;;;;;;;;;;;;;;;10.60;81.15;99483.06;10222378;23;20506;-77
2022/11/25 12:01:30;;;;;;;;;;;;;;;10.66;81.92;99485.63;10214132;23;20395;-78
2022/11/25 12:05:36;;;;;;;;;;;;;;;10.75;82.40;99492.50;10223649;23;19935;-77
2022/11/25 12:09:42;;;;;;;;;;;;;;;10.79;82.25;99500.31;10222401;23;19924;-78
2022/11/25 12:13:49;;;;;;;;;;;;;;;10.81;80.98;99503.75;10222071;23;20216;-78
2022/11/25 12:17:53;;;;;;;;;;;;;;;10.78;80.51;99503.78;10213347;23;20029;-79
2022/11/25 12:21:57;;;;;;;;;;;;;;;10.73;80.76;99508.09;10223852;23;19936;-78
2022/11/25 12:26:01;;;;;;;;;;;;;;;10.73;80.80;99510.69;10224320;23;19924;-78
2022/11/25 12:30:03;;;;;;;;;;;;;;;10.68;81.31;99517.66;10192853;23;19924;-78
2022/11/25 12:34:10;;;;;;;;;;;;;;;10.70;82.31;99515.03;10203884;23;19928;-78
2022/11/25 12:38:24;;;;;;;;;;;;;;;10.65;81.32;99516.78;10229983;23;20596;-77
2022/11/25 12:42:29;;;;;;;;;;;;;;;10.71;81.51;99527.16;10228397;23;19974;-78
2022/11/25 12:46:40;;;;;;;;;;;;;;;10.72;82.24;99528.88;10222767;23;20517;-81
2022/11/25 12:51:01;;;;;;;;;;;;;;;10.76;82.62;99536.66;10221148;23;19935;-77
2022/11/25 12:55:14;;;;;;;;;;;;;;;10.76;82.57;99544.44;10226270;23;20003;-78
2022/11/25 12:59:28;;;;;;;;;;;;;;;10.76;83.75;99559.16;10228304;23;19924;-77
2022/11/25 13:04:02;;;;;;;;;;;;;;;10.73;84.24;99559.19;10217703;23;20305;-78
2022/11/25 13:08:06;;;;;;;;;;;;;;;10.69;84.42;99554.88;10145275;23;19928;-79
2022/11/25 13:12:07;;;;;;;;;;;;;;;10.66;84.32;99566.13;10224893;23;19924;-78
2022/11/25 13:16:10;;;;;;;;;;;;;;;10.64;84.13;99572.19;10222574;23;19948;-77
2022/11/25 13:20:27;;;;;;;;;;;;;;;10.71;85.12;99579.09;10204540;23;19951;-78
2022/11/25 13:24:30;;;;;;;;;;;;;;;10.77;84.92;99587.75;10253667;23;19935;-76
2022/11/25 13:28:35;;;;;;;;;;;;;;;10.81;84.20;99591.22;10227350;23;19994;-78
2022/11/25 13:32:37;;;;;;;;;;;;;;;10.86;84.87;99603.31;10220691;23;20002;-77
2022/11/25 13:36:44;;;;;;;;;;;;;;;10.89;85.27;99611.09;10225993;23;19944;-78
2022/11/25 13:40:54;;;;;;;;;;;;;;;10.93;84.37;99614.53;10253086;23;19924;-78
2022/11/25 13:44:59;;;;;;;;;;;;;;;10.94;82.64;99618.00;10229539;23;19920;-78
2022/11/25 13:49:00;;;;;;;;;;;;;;;10.87;80.85;99618.03;10224689;23;19932;-77
2022/11/25 13:53:03;;;;;;;;;;;;;;;10.85;81.12;99617.16;10226090;23;19963;-77
2022/11/25 13:57:05;;;;;;;;;;;;;;;10.86;81.44;99618.91;10223064;23;19928;-77
2022/11/25 14:01:26;;;;;;;;;;;;;;;10.81;80.99;99619.78;10225283;23;19999;-77
2022/11/25 14:05:33;;;;;;;;;;;;;;;10.74;79.92;99621.50;10198724;23;19932;-77
2022/11/25 14:09:44;;;;;;;;;;;;;;;10.73;79.59;99632.75;10200099;23;19924;-78
2022/11/25 14:14:05;;;;;;;;;;;;;;;10.61;78.29;99634.53;10221638;23;19924;-77
2022/11/25 14:18:25;;;;;;;;;;;;;;;10.55;79.24;99648.34;10187738;23;19944;-78
2022/11/25 14:22:55;;;;;;;;;;;;;;;10.44;78.09;99656.16;10221914;23;19931;-81
2022/11/25 14:26:58;;;;;;;;;;;;;;;10.40;78.85;99661.31;10197712;23;20011;-78
2022/11/25 14:31:03;;;;;;;;;;;;;;;10.34;79.28;99666.53;10219734;23;19978;-78
2022/11/25 14:35:17;;;;;;;;;;;;;;;10.27;79.03;99676.03;10227186;23;19927;-78
2022/11/25 14:39:26;;;;;;;;;;;;;;;10.19;80.28;99678.56;10227026;23;19947;-78
2022/11/25 14:43:29;;;;;;;;;;;;;;;10.19;80.32;99688.97;10229909;23;19924;-77
2022/11/25 14:47:35;;;;;;;;;;;;;;;10.22;80.50;99690.72;10228296;23;20014;-78
2022/11/25 14:51:40;;;;;;;;;;;;;;;10.20;80.46;99690.69;10227864;23;19935;-78
2022/11/25 14:55:46;;;;;;;;;;;;;;;10.16;80.02;99693.28;10223062;23;20007;-82
2022/11/25 14:59:48;;;;;;;;;;;;;;;10.09;79.52;99697.59;10224174;23;20201;-78
2022/11/25 15:03:50;;;;;;;;;;;;;;;10.05;80.43;99697.56;10215689;23;20318;-78
2022/11/25 15:08:00;;;;;;;;;;;;;;;9.99;81.07;99691.50;10196826;23;19924;-78
2022/11/25 15:12:07;;;;;;;;;;;;;;;9.89;81.86;99702.75;10222830;23;19935;-80
2022/11/25 15:16:13;;;;;;;;;;;;;;;9.81;81.84;99696.63;10219533;23;20397;-78
2022/11/25 15:20:16;;;;;;;;;;;;;;;9.69;83.25;99705.25;10227341;23;20006;-77
2022/11/25 15:24:28;;;;;;;;;;;;;;;9.58;82.75;99712.09;10203788;23;20317;-78
2022/11/25 15:28:34;;;;;;;;;;;;;;;9.42;83.65;99723.25;10229551;23;19925;-78
2022/11/25 15:32:37;;;;;;;;;;;;;;;9.27;84.31;99731.81;10222465;23;19960;-78
2022/11/25 15:36:39;;;;;;;;;;;;;;;9.12;86.27;99736.88;10231304;23;19920;-79
2022/11/25 15:40:42;;;;;;;;;;;;;;;8.95;86.68;99739.34;10229369;23;19921;-79
2022/11/25 15:44:56;;;;;;;;;;;;;;;8.82;87.85;99747.03;10205895;23;19932;-80
2022/11/25 15:49:00;;;;;;;;;;;;;;;8.67;87.93;99752.94;10229917;23;19924;-79
2022/11/25 15:53:01;;;;;;;;;;;;;;;8.53;89.23;99757.97;10227123;23;19978;-78
2022/11/25 15:57:15;;;;;;;;;;;;;;;8.41;89.57;99753.53;10225858;23;19975;-78
2022/11/25 16:01:16;;;;;;;;;;;;;;;8.38;90.63;99766.44;10222028;23;20394;-78
2022/11/25 16:05:21;;;;;;;;;;;;;;;8.33;90.59;99772.41;10206271;23;20224;-80
2022/11/25 16:09:24;;;;;;;;;;;;;;;8.27;91.31;99780.97;10226901;23;19920;-79
2022/11/25 16:13:29;;;;;;;;;;;;;;;8.22;92.08;99768.81;10222870;23;20292;-77
2022/11/25 16:17:35;;;;;;;;;;;;;;;8.08;91.42;99779.03;10217316;23;20008;-77
2022/11/25 16:21:40;;;;;;;;;;;;;;;7.94;91.91;99786.59;10220288;23;19924;-76
2022/11/25 16:25:48;;;;;;;;;;;;;;;7.83;92.66;99793.34;10223204;23;20007;-77
2022/11/25 16:29:54;;;;;;;;;;;;;;;7.66;92.40;99798.28;10222946;23;20255;-77
2022/11/25 16:33:59;;;;;;;;;;;;;;;7.60;92.83;99816.31;10215785;23;19930;-76
2022/11/25 16:38:00;;;;;;;;;;;;;;;7.51;93.52;99814.44;10223701;23;19924;-77
2022/11/25 16:42:03;;;;;;;;;;;;;;;7.45;93.75;99822.09;10223726;23;19924;-77
2022/11/25 16:46:05;;;;;;;;;;;;;;;7.38;93.78;99830.63;10216904;23;19924;-77
2022/11/25 16:50:16;;;;;;;;;;;;;;;7.27;94.00;99835.63;10227258;23;19986;-77
2022/11/25 16:54:18;;;;;;;;;;;;;;;7.17;93.84;99851.78;10223999;23;19955;-77
2022/11/25 16:58:25;;;;;;;;;;;;;;;7.04;94.05;99855.03;10225218;23;19963;-76
2022/11/25 17:02:27;;;;;;;;;;;;;;;6.95;94.26;99857.44;10216987;23;19924;-77
2022/11/25 17:06:30;;;;;;;;;;;;;;;6.77;93.98;99854.53;10228820;23;19924;-77
2022/11/25 17:10:31;;;;;;;;;;;;;;;6.68;94.26;99869.84;10228070;23;19935;-77
2022/11/25 17:14:34;;;;;;;;;;;;;;;6.58;94.72;99871.38;10228392;23;19966;-77
2022/11/25 17:18:36;;;;;;;;;;;;;;;6.54;95.39;99875.63;10224128;23;19981;-77
2022/11/25 17:22:37;;;;;;;;;;;;;;;6.57;96.03;99888.56;10228452;23;19920;-77
2022/11/25 17:26:40;;;;;;;;;;;;;;;6.51;95.44;99887.59;10227181;23;19959;-76
2022/11/25 17:30:43;;;;;;;;;;;;;;;6.42;95.80;99901.16;10221938;23;19971;-75
2022/11/25 17:34:44;;;;;;;;;;;;;;;6.35;96.02;99907.03;10198223;23;19920;-76
2022/11/25 17:38:46;;;;;;;;;;;;;;;6.24;95.87;99908.50;10225041;23;19956;-77
2022/11/25 17:42:48;;;;;;;;;;;;;;;6.16;95.94;99913.53;10224583;23;19925;-76
2022/11/25 17:46:50;;;;;;;;;;;;;;;6.11;96.02;99916.84;10219175;23;19924;-76
2022/11/25 17:50:51;;;;;;;;;;;;;;;6.02;96.29;99922.66;10227672;23;19925;-76
2022/11/25 17:54:53;;;;;;;;;;;;;;;5.94;96.53;99930.22;10225349;23;19986;-76
2022/11/25 17:58:55;;;;;;;;;;;;;;;5.87;96.56;99936.03;10226211;23;20334;-76
2022/11/25 18:02:57;;;;;;;;;;;;;;;5.81;96.72;99941.03;10222994;23;19920;-76
2022/11/25 18:06:58;;;;;;;;;;;;;;;5.71;96.66;99946.81;10229231;23;19924;-76
2022/11/25 18:11:01;;;;;;;;;;;;;;;5.60;96.49;99961.16;10227461;23;19924;-77
2022/11/25 18:15:07;;;;;;;;;;;;;;;5.52;96.52;99971.25;10224084;23;19924;-77
2022/11/25 18:19:10;;;;;;;;;;;;;;;5.45;96.52;99980.53;10222039;23;19924;-76
2022/11/25 18:23:12;;;;;;;;;;;;;;;5.42;97.16;99988.19;10222006;23;19931;-77
2022/11/25 18:27:25;;;;;;;;;;;;;;;5.50;97.92;99992.66;10221637;23;20327;-77
2022/11/25 18:31:27;;;;;;;;;;;;;;;5.50;97.83;100000.38;10214883;23;19934;-76
2022/11/25 18:35:30;;;;;;;;;;;;;;;5.51;98.46;100008.13;10219174;23;19963;-77
2022/11/25 18:39:37;;;;;;;;;;;;;;;5.60;98.98;100015.25;10222069;23;19924;-76
2022/11/25 18:43:38;;;;;;;;;;;;;;;5.71;99.55;100019.81;10223573;23;19935;-76
2022/11/25 18:47:40;;;;;;;;;;;;;;;5.74;99.95;100032.78;10217411;23;19925;-75
2022/11/25 18:51:41;;;;;;;;;;;;;;;5.82;100.00;100032.97;10222073;23;19959;-75
2022/11/25 18:55:43;;;;;;;;;;;;;;;5.87;99.80;100044.25;10221059;23;20003;-76
2022/11/25 18:59:46;;;;;;;;;;;;;;;5.90;100.00;100057.25;10196931;23;19963;-77
2022/11/25 19:04:13;;;;;;;;;;;;;;;5.95;99.96;100049.66;10221488;23;19924;-77
2022/11/25 19:08:17;;;;;;;;;;;;;;;5.94;99.87;100058.22;10221046;23;19931;-77
2022/11/25 19:12:21;;;;;;;;;;;;;;;6.01;100.00;100063.56;10221519;23;19924;-76
2022/11/25 19:16:23;;;;;;;;;;;;;;;6.08;100.00;100072.28;10221025;23;19928;-77
2022/11/25 19:20:28;;;;;;;;;;;;;;;6.10;100.00;100070.63;10197254;23;19924;-76
2022/11/25 19:24:30;;;;;;;;;;;;;;;6.12;100.00;100081.00;10222694;23;20532;-77
2022/11/25 19:28:31;;;;;;;;;;;;;;;6.12;100.00;100096.47;10223748;23;19982;-76
2022/11/25 19:32:33;;;;;;;;;;;;;;;6.10;100.00;100101.56;10216359;23;19947;-77
2022/11/25 19:36:36;;;;;;;;;;;;;;;6.07;100.00;100111.81;10225034;23;19928;-77
2022/11/25 19:40:39;;;;;;;;;;;;;;;6.06;100.00;100113.50;10223059;23;19924;-77
2022/11/25 19:44:41;;;;;;;;;;;;;;;6.00;99.88;100117.66;10222597;23;19935;-77
2022/11/25 19:48:42;;;;;;;;;;;;;;;5.99;100.00;100123.63;10218913;23;20007;-77
2022/11/25 19:52:43;;;;;;;;;;;;;;;6.03;100.00;100128.03;10227414;23;19924;-77
2022/11/25 19:56:45;;;;;;;;;;;;;;;6.04;100.00;100122.91;10224853;23;20011;-77
2022/11/25 20:00:46;;;;;;;;;;;;;;;6.09;100.00;100135.03;10193339;23;19924;-77
2022/11/25 20:04:50;;;;;;;;;;;;;;;6.14;100.00;100138.63;10201134;23;20774;-77
2022/11/25 20:08:51;;;;;;;;;;;;;;;6.21;100.00;100143.09;10200461;23;19932;-77
2022/11/25 20:12:54;;;;;;;;;;;;;;;6.23;100.00;100144.00;10226416;23;19935;-77
2022/11/25 20:16:55;;;;;;;;;;;;;;;6.26;100.00;100155.25;10219244;23;20003;-77
2022/11/25 20:21:02;;;;;;;;;;;;;;;6.20;100.00;100165.44;10222076;23;19939;-77
2022/11/25 20:25:04;;;;;;;;;;;;;;;6.22;100.00;100162.88;10223080;23;19924;-77
2022/11/25 20:29:15;;;;;;;;;;;;;;;6.26;100.00;100169.84;10222712;23;19962;-77
2022/11/25 20:33:16;;;;;;;;;;;;;;;6.22;100.00;100174.06;10213339;23;19925;-77
2022/11/25 20:37:26;;;;;;;;;;;;;;;6.21;100.00;100168.88;10222217;23;19970;-77
2022/11/25 20:41:28;;;;;;;;;;;;;;;6.11;100.00;100177.22;10200017;23;19960;-77
2022/11/25 20:45:30;;;;;;;;;;;;;;;6.05;100.00;100181.38;10221392;23;20015;-77
2022/11/25 20:49:32;;;;;;;;;;;;;;;6.03;100.00;100182.16;10204823;23;19924;-77
2022/11/25 20:53:34;;;;;;;;;;;;;;;6.00;100.00;100185.53;10204800;23;19955;-77
2022/11/25 20:57:35;;;;;;;;;;;;;;;5.89;99.97;100181.75;10232465;23;19920;-77
2022/11/25 21:01:36;;;;;;;;;;;;;;;5.79;99.76;100189.22;10221297;23;20304;-77
2022/11/25 21:05:39;;;;;;;;;;;;;;;5.66;99.12;100188.88;10226481;23;19975;-76
2022/11/25 21:09:44;;;;;;;;;;;;;;;5.52;99.08;100191.88;10223738;23;19920;-77
2022/11/25 21:13:46;;;;;;;;;;;;;;;5.41;99.61;100195.03;10223432;23;19924;-76
2022/11/25 21:17:49;;;;;;;;;;;;;;;5.35;100.00;100205.13;10215713;23;20035;-75
2022/11/25 21:21:50;;;;;;;;;;;;;;;5.24;100.00;100206.53;10218867;23;19930;-75
2022/11/25 21:25:52;;;;;;;;;;;;;;;5.20;99.90;100206.38;10222432;23;19925;-77
2022/11/25 21:29:55;;;;;;;;;;;;;;;5.13;99.71;100219.06;10221986;23;19921;-77
2022/11/25 21:33:57;;;;;;;;;;;;;;;5.04;99.63;100217.94;10214870;23;19956;-76